Time;durP1;ratioP1;P1;durP2;ratioP2;P2;SDS_P1;SDS_P2;PMS_P1;PMS_P2;Temp;Humidity;BMP_temperature;BMP_pressure;BME280_temperature;BME280_humidity;BME280_pressure;Samples;Min_cycle;Max_cycle;Signal;HPM_P1;HPM_P2
2023/01/20 00:01:19;;;;;;;8.20;3.03;;;;;;;11.22;62.90;98463.22;4961267;28;20038;-93
2023/01/20 00:03:46;;;;;;;12.50;2.97;;;;;;;11.07;63.30;98450.81;4928923;28;20089;-93
2023/01/20 00:06:15;;;;;;;10.05;3.28;;;;;;;11.23;62.79;98464.06;4928016;28;20412;-92
2023/01/20 00:08:40;;;;;;;12.50;2.63;;;;;;;11.04;63.28;98440.66;4927874;28;20062;-93
2023/01/20 00:11:07;;;;;;;9.43;3.20;;;;;;;11.28;62.96;98447.78;4927798;28;20046;-92
2023/01/20 00:13:33;;;;;;;8.07;2.63;;;;;;;11.08;63.54;98451.63;4928542;28;20038;-93
2023/01/20 00:16:01;;;;;;;8.82;3.10;;;;;;;10.98;63.81;98441.81;4944069;28;20120;-93
2023/01/20 00:18:27;;;;;;;9.48;3.20;;;;;;;10.99;63.56;98435.31;4927652;28;20027;-94
2023/01/20 00:20:53;;;;;;;14.15;2.97;;;;;;;11.09;63.33;98454.03;4928860;28;20037;-93
2023/01/20 00:23:18;;;;;;;13.23;3.03;;;;;;;11.07;63.71;98456.22;4928232;28;20030;-92
2023/01/20 00:25:44;;;;;;;10.02;2.83;;;;;;;10.88;63.94;98434.69;4943698;28;20489;-93
2023/01/20 00:28:09;;;;;;;9.57;2.83;;;;;;;10.89;63.60;98427.41;4928119;28;20035;-92
2023/01/20 00:30:35;;;;;;;7.97;2.78;;;;;;;11.03;63.36;98446.31;4927906;28;20498;-92
2023/01/20 00:33:01;;;;;;;10.07;2.85;;;;;;;11.11;62.18;98427.59;4959574;28;20101;-92
2023/01/20 00:35:26;;;;;;;6.32;1.80;;;;;;;11.47;60.60;98455.81;4943591;28;20034;-93
2023/01/20 00:37:51;;;;;;;6.57;2.25;;;;;;;11.63;60.21;98453.66;4927336;28;20062;-93
2023/01/20 00:40:17;;;;;;;5.80;2.38;;;;;;;11.82;59.67;98443.56;4928591;28;20031;-94
2023/01/20 00:42:42;;;;;;;6.75;2.05;;;;;;;12.11;57.75;98437.09;4928299;28;20037;-93
2023/01/20 00:45:08;;;;;;;6.60;1.98;;;;;;;12.41;57.18;98445.63;4928188;28;20038;-93
2023/01/20 00:47:34;;;;;;;7.40;2.45;;;;;;;12.68;56.65;98452.91;4943381;28;20038;-93
2023/01/20 00:49:59;;;;;;;11.00;2.33;;;;;;;12.74;56.06;98449.78;4927809;28;20098;-93
2023/01/20 00:52:25;;;;;;;6.40;1.95;;;;;;;12.79;55.10;98421.84;4943667;28;20035;-93
2023/01/20 00:54:52;;;;;;;3.80;1.65;;;;;;;13.08;54.57;98429.50;4921805;29;20047;-93
2023/01/20 00:57:18;;;;;;;8.35;2.10;;;;;;;13.26;53.90;98433.13;4940844;29;20089;-92
2023/01/20 00:59:43;;;;;;;4.80;1.83;;;;;;;13.27;53.70;98413.09;4948359;28;20208;-94
2023/01/20 01:02:08;;;;;;;3.85;2.47;;;;;;;13.51;53.22;98436.31;4911339;29;20050;-93
2023/01/20 01:04:35;;;;;;;3.05;1.88;;;;;;;13.46;53.49;98410.19;4926780;28;20105;-94
2023/01/20 01:07:04;;;;;;;6.05;2.58;;;;;;;13.57;53.25;98404.50;4975417;28;20394;-94
2023/01/20 01:09:31;;;;;;;4.93;2.13;;;;;;;13.62;53.31;98409.78;4943287;28;20054;-93
2023/01/20 01:11:58;;;;;;;4.57;1.83;;;;;;;13.66;52.64;98408.84;4927670;28;20087;-94
2023/01/20 01:14:24;;;;;;;4.13;2.05;;;;;;;13.72;52.46;98399.47;4937499;29;20122;-93
2023/01/20 01:16:50;;;;;;;4.30;2.10;;;;;;;13.81;52.44;98409.53;4951440;29;20133;-93
2023/01/20 01:19:19;;;;;;;5.85;2.50;;;;;;;13.88;52.39;98409.88;4948391;28;20066;-93
2023/01/20 01:21:46;;;;;;;6.35;2.38;;;;;;;13.85;52.21;98407.81;4942739;28;20030;-93
2023/01/20 01:24:11;;;;;;;6.75;2.33;;;;;;;13.83;52.49;98413.50;4959163;28;20057;-93
2023/01/20 01:26:37;;;;;;;8.57;2.50;;;;;;;13.93;52.30;98405.13;4959501;28;20034;-94
2023/01/20 01:29:04;;;;;;;7.20;2.10;;;;;;;13.88;52.44;98412.56;4943899;28;20038;-93
2023/01/20 01:31:30;;;;;;;4.90;1.63;;;;;;;13.99;52.22;98430.13;4943322;28;20038;-93
2023/01/20 01:33:56;;;;;;;5.28;2.38;;;;;;;13.98;52.21;98406.09;4960621;28;20027;-93
2023/01/20 01:36:21;;;;;;;7.72;2.42;;;;;;;14.10;52.04;98423.31;4927059;28;20042;-92
2023/01/20 01:38:48;;;;;;;5.10;2.40;;;;;;;14.03;52.00;98401.31;4943458;28;20046;-93
2023/01/20 01:41:13;;;;;;;6.53;2.28;;;;;;;14.10;51.88;98439.53;4942038;28;20035;-93
2023/01/20 01:43:57;;;;;;;6.75;2.53;;;;;;;14.01;52.03;98406.25;4927243;28;20038;-93
2023/01/20 01:46:24;;;;;;;7.38;2.35;;;;;;;13.85;52.33;98378.81;4929990;28;20117;-94
2023/01/20 01:48:50;;;;;;;5.78;2.60;;;;;;;14.08;51.80;98403.09;4957442;28;20034;-93
2023/01/20 01:51:21;;;;;;;5.32;2.58;;;;;;;14.13;51.59;98398.31;4942532;28;20123;-93
2023/01/20 01:54:21;;;;;;;6.93;3.22;;;;;;;14.17;51.92;98413.91;4926810;28;20031;-94
2023/01/20 01:56:47;;;;;;;4.72;2.67;;;;;;;14.20;51.09;98397.06;4928654;28;20097;-93
2023/01/20 01:59:14;;;;;;;6.03;2.60;;;;;;;14.11;51.52;98392.44;4947288;29;20110;-94
2023/01/20 02:01:41;;;;;;;4.53;2.38;;;;;;;14.02;51.76;98367.25;4942417;28;20066;-94
2023/01/20 02:04:15;;;;;;;5.25;2.67;;;;;;;14.17;51.69;98378.72;4958968;28;20492;-93
2023/01/20 02:06:43;;;;;;;5.45;2.42;;;;;;;14.15;51.40;98376.31;4953190;29;20051;-91
2023/01/20 02:09:09;;;;;;;7.50;2.40;;;;;;;14.10;51.69;98360.25;4925329;28;20031;-94
2023/01/20 02:11:47;;;;;;;5.28;2.10;;;;;;;14.08;51.90;98376.00;4930684;28;20054;-94
2023/01/20 02:14:19;;;;;;;3.72;2.40;;;;;;;14.01;52.25;98367.53;4927655;28;20041;-94
2023/01/20 02:17:06;;;;;;;5.57;2.60;;;;;;;14.14;52.12;98383.66;4942596;28;20401;-94
2023/01/20 02:19:34;;;;;;;3.38;2.00;;;;;;;14.20;52.09;98387.03;4957312;28;20516;-93
2023/01/20 02:22:18;;;;;;;4.75;2.58;;;;;;;14.21;52.01;98385.09;4958442;28;20035;-94
2023/01/20 02:24:58;;;;;;;7.75;3.53;;;;;;;14.14;51.88;98372.03;4959143;28;20501;-94
2023/01/20 02:27:31;;;;;;;6.97;2.83;;;;;;;14.23;51.48;98385.59;4941620;28;20563;-94
2023/01/20 02:30:17;;;;;;;6.10;3.05;;;;;;;14.22;51.77;98371.25;4943083;28;20034;-94
2023/01/20 02:33:18;;;;;;;5.18;2.30;;;;;;;14.19;51.33;98374.59;4942312;28;20035;-94
2023/01/20 02:36:01;;;;;;;5.57;2.63;;;;;;;14.15;51.57;98387.97;4942173;28;20042;-94
2023/01/20 02:39:14;;;;;;;9.63;2.67;;;;;;;14.15;51.64;98393.38;4942793;28;20038;-93
2023/01/20 02:41:40;;;;;;;3.80;2.35;;;;;;;14.17;51.75;98386.84;4927422;29;20078;-92
2023/01/20 02:44:23;;;;;;;6.05;3.00;;;;;;;14.21;51.74;98395.94;4938444;29;20035;-93
2023/01/20 02:47:07;;;;;;;10.15;2.88;;;;;;;14.20;51.90;98400.56;4950007;28;20035;-94
2023/01/20 02:49:37;;;;;;;7.78;2.90;;;;;;;14.11;52.19;98399.72;4946894;29;20122;-93
2023/01/20 02:52:14;;;;;;;8.73;2.63;;;;;;;14.11;52.16;98380.78;4929853;29;20466;-94
2023/01/20 02:54:43;;;;;;;5.18;2.55;;;;;;;14.07;52.19;98366.28;4939594;28;20042;-93
2023/01/20 02:57:11;;;;;;;10.75;3.40;;;;;;;14.05;52.02;98380.16;4926385;28;20031;-93
2023/01/20 02:59:38;;;;;;;8.07;3.13;;;;;;;14.08;52.10;98384.13;4951242;28;20120;-93
2023/01/20 03:02:07;;;;;;;6.70;2.90;;;;;;;14.07;52.24;98383.34;4930132;28;20109;-93
2023/01/20 03:04:37;;;;;;;5.10;3.00;;;;;;;14.04;52.83;98394.78;4930477;29;20094;-93
2023/01/20 03:07:04;;;;;;;6.22;2.97;;;;;;;14.10;52.51;98393.53;4911479;29;20035;-93
2023/01/20 03:09:32;;;;;;;8.50;2.80;;;;;;;13.98;52.61;98376.31;4942235;29;20117;-93
2023/01/20 03:12:00;;;;;;;6.68;2.70;;;;;;;14.01;52.61;98379.19;4926585;29;20042;-93
2023/01/20 03:14:26;;;;;;;5.93;3.10;;;;;;;13.92;52.51;98373.75;4910745;29;20019;-93
2023/01/20 03:16:52;;;;;;;10.05;2.75;;;;;;;13.97;52.66;98394.47;4941792;29;20067;-93
2023/01/20 03:19:18;;;;;;;5.55;2.58;;;;;;;13.98;52.80;98384.44;4942375;29;20549;-92
2023/01/20 03:21:44;;;;;;;7.40;2.58;;;;;;;14.00;52.30;98395.75;4926300;29;20054;-93
2023/01/20 03:24:10;;;;;;;6.70;2.90;;;;;;;14.03;52.29;98420.28;4941963;29;20116;-93
2023/01/20 03:26:36;;;;;;;7.93;2.60;;;;;;;13.95;51.86;98408.31;4910129;29;20031;-94
2023/01/20 03:29:05;;;;;;;8.18;2.65;;;;;;;13.98;51.62;98436.63;4945480;28;20033;-94
2023/01/20 03:31:39;;;;;;;5.63;2.50;;;;;;;13.75;50.55;98422.41;4929915;28;20058;-94
2023/01/20 03:34:11;;;;;;;3.20;1.13;;;;;;;13.54;51.40;98454.63;4920254;29;20039;-93
2023/01/20 03:36:37;;;;;;;3.95;1.02;;;;;;;13.18;52.73;98436.56;4942677;29;20413;-94
2023/01/20 03:39:06;;;;;;;1.98;0.98;;;;;;;12.71;54.41;98426.06;4941447;29;20044;-95
2023/01/20 03:41:41;;;;;;;2.97;1.05;;;;;;;12.50;55.49;98452.72;4951030;29;20142;-93
2023/01/20 03:44:28;;;;;;;2.33;0.90;;;;;;;12.23;56.47;98447.38;4940346;29;20414;-93
2023/01/20 03:47:18;;;;;;;2.42;0.88;;;;;;;12.02;57.15;98444.31;4967782;28;20108;-94
2023/01/20 03:50:08;;;;;;;4.60;0.90;;;;;;;11.87;57.39;98454.28;4969880;28;20027;-94
2023/01/20 03:53:02;;;;;;;2.22;1.20;;;;;;;11.71;58.01;98459.16;4958227;28;20129;-94
2023/01/20 03:56:12;;;;;;;2.80;1.10;;;;;;;11.65;58.62;98443.38;4950260;28;20067;-93
2023/01/20 03:58:40;;;;;;;4.13;1.00;;;;;;;11.48;58.79;98436.66;4940200;29;20051;-94
2023/01/20 04:01:08;;;;;;;3.63;0.80;;;;;;;11.41;59.21;98438.91;4940530;29;20035;-93
2023/01/20 04:03:37;;;;;;;3.55;0.90;;;;;;;11.30;59.29;98432.13;4925836;29;20027;-93
2023/01/20 04:06:04;;;;;;;2.67;0.98;;;;;;;11.33;59.54;98421.56;4941489;29;20094;-94
2023/01/20 04:08:35;;;;;;;3.42;1.20;;;;;;;11.42;59.38;98435.16;4909988;29;20045;-93
2023/01/20 04:11:04;;;;;;;2.90;1.00;;;;;;;11.40;59.73;98425.75;4924168;29;20038;-94
2023/01/20 04:13:31;;;;;;;2.40;1.05;;;;;;;11.21;59.67;98396.19;4925398;29;20035;-94
2023/01/20 04:15:58;;;;;;;2.05;0.93;;;;;;;11.35;59.18;98418.56;4956906;29;20039;-94
2023/01/20 04:18:23;;;;;;;1.45;1.02;;;;;;;11.22;60.01;98408.56;4956730;29;20035;-93
2023/01/20 04:21:00;;;;;;;3.30;1.00;;;;;;;11.32;59.36;98411.84;4925230;29;20046;-94
2023/01/20 04:23:59;;;;;;;4.82;1.20;;;;;;;11.35;59.78;98426.66;4925102;29;20031;-93
2023/01/20 04:26:39;;;;;;;2.33;1.00;;;;;;;11.23;59.66;98400.19;4867896;29;20079;-96
2023/01/20 04:29:07;;;;;;;4.10;1.52;;;;;;;11.14;60.28;98383.09;4899900;29;20040;-95
2023/01/20 04:31:37;;;;;;;1.73;1.20;;;;;;;11.12;60.15;98375.31;4884900;29;20424;-95
2023/01/20 04:34:05;;;;;;;3.50;1.52;;;;;;;11.03;60.58;98390.53;4899644;29;20524;-95
2023/01/20 04:36:35;;;;;;;8.13;1.48;;;;;;;11.01;60.65;98379.25;4915903;29;20528;-95
2023/01/20 04:39:00;;;;;;;5.07;1.30;;;;;;;11.08;60.49;98386.97;4868392;29;20071;-95
2023/01/20 04:41:26;;;;;;;5.35;1.50;;;;;;;10.99;60.81;98378.75;4884982;29;20546;-96
2023/01/20 04:43:53;;;;;;;4.72;1.48;;;;;;;11.08;61.08;98390.47;4885016;29;20104;-95
2023/01/20 04:46:19;;;;;;;4.03;1.58;;;;;;;11.01;60.65;98373.88;4900349;29;20045;-93
2023/01/20 04:48:46;;;;;;;2.42;1.50;;;;;;;10.90;60.85;98365.19;4882611;29;20036;-94
2023/01/20 04:51:11;;;;;;;3.13;1.60;;;;;;;10.95;61.15;98369.66;4909437;29;20044;-96
2023/01/20 04:53:38;;;;;;;4.50;2.15;;;;;;;10.77;61.30;98357.88;4902163;29;20100;-94
2023/01/20 04:56:10;;;;;;;5.30;1.60;;;;;;;10.88;61.00;98348.50;4917637;29;20035;-94
2023/01/20 04:58:36;;;;;;;;;;;;;;;10.99;61.37;98359.91;4952404;28;20502;-93
2023/01/20 05:01:03;;;;;;;11.82;6.30;;;;;;;10.93;61.34;98336.84;4966064;28;19921;-92
2023/01/20 05:03:29;;;;;;;5.53;2.15;;;;;;;10.93;61.17;98328.78;4921666;28;20043;-93
2023/01/20 05:05:55;;;;;;;6.85;1.80;;;;;;;10.80;61.61;98316.09;4922225;28;20096;-92
2023/01/20 05:14:30;;;;;;;6.47;2.03;;;;;;;10.73;61.49;98286.84;4975595;28;20065;-93
2023/01/20 05:16:55;;;;;;;7.88;2.35;;;;;;;10.86;61.81;98307.63;4936326;29;20039;-96
2023/01/20 05:19:21;;;;;;;7.40;2.53;;;;;;;10.78;61.80;98280.59;4908701;29;20038;-95
2023/01/20 05:21:46;;;;;;;6.32;3.05;;;;;;;10.94;61.47;98273.03;4910049;29;20038;-95
2023/01/20 05:24:12;;;;;;;10.60;3.42;;;;;;;10.94;61.57;98273.03;4923738;29;20039;-95
2023/01/20 05:26:37;;;;;;;5.57;2.78;;;;;;;11.01;61.29;98279.59;4909228;29;20103;-94
2023/01/20 05:29:05;;;;;;;3.97;2.63;;;;;;;11.08;60.78;98277.34;4908159;29;20383;-94
2023/01/20 05:31:31;;;;;;;5.53;3.20;;;;;;;11.36;60.74;98309.66;4932845;29;20031;-93
2023/01/20 05:33:56;;;;;;;9.63;3.78;;;;;;;11.49;60.94;98300.75;4936042;28;20046;-94
2023/01/20 05:36:22;;;;;;;9.45;3.45;;;;;;;11.57;60.11;98320.03;4915105;29;20038;-93
2023/01/20 05:38:47;;;;;;;5.60;3.15;;;;;;;11.63;59.72;98314.22;4938076;28;20035;-94
2023/01/20 05:41:13;;;;;;;6.68;4.00;;;;;;;11.79;59.62;98311.25;4926246;28;20035;-93
2023/01/20 05:43:38;;;;;;;8.50;4.70;;;;;;;11.88;59.20;98312.09;4925766;28;20049;-92
2023/01/20 05:46:07;;;;;;;14.25;3.55;;;;;;;12.08;59.03;98302.81;4925350;28;20034;-94
2023/01/20 05:48:32;;;;;;;14.60;4.43;;;;;;;12.34;58.85;98294.91;4925976;28;20030;-94
2023/01/20 05:50:58;;;;;;;18.13;7.85;;;;;;;12.43;58.34;98266.06;4928858;28;20034;-93
2023/01/20 05:53:23;;;;;;;8.82;4.95;;;;;;;12.76;57.81;98297.38;4913673;29;20055;-93
2023/01/20 05:55:49;;;;;;;9.93;5.32;;;;;;;12.76;57.69;98289.28;4920834;29;20495;-94
2023/01/20 05:58:14;;;;;;;16.38;5.07;;;;;;;12.93;56.95;98281.28;4907991;29;20031;-94
2023/01/20 06:00:42;;;;;;;7.32;4.30;;;;;;;12.99;56.62;98281.94;4911203;29;20035;-94
2023/01/20 06:03:08;;;;;;;7.93;4.13;;;;;;;13.10;56.12;98297.56;4924042;29;20031;-93
2023/01/20 06:05:33;;;;;;;8.45;4.05;;;;;;;13.20;55.36;98271.34;4907461;29;20039;-93
2023/01/20 06:07:59;;;;;;;7.15;4.03;;;;;;;13.42;55.16;98282.13;4908033;29;20032;-94
2023/01/20 06:10:26;;;;;;;11.07;4.25;;;;;;;13.45;54.85;98278.81;4908887;29;20043;-95
2023/01/20 06:12:52;;;;;;;6.40;3.85;;;;;;;13.44;54.65;98273.69;4908416;29;20055;-94
2023/01/20 06:15:18;;;;;;;12.70;4.30;;;;;;;13.46;54.74;98266.88;4907746;29;20051;-92
2023/01/20 06:17:43;;;;;;;9.32;3.90;;;;;;;13.55;54.13;98275.03;4907844;29;20517;-95
2023/01/20 06:20:10;;;;;;;13.13;5.05;;;;;;;13.66;55.00;98262.78;4909197;29;20111;-96
2023/01/20 06:22:35;;;;;;;6.03;3.63;;;;;;;13.46;54.01;98258.75;4908967;29;20493;-93
2023/01/20 06:25:01;;;;;;;12.93;4.80;;;;;;;13.67;53.87;98261.66;4908729;29;20054;-94
2023/01/20 06:27:26;;;;;;;9.48;4.25;;;;;;;13.63;53.32;98268.81;4915456;29;20090;-93
2023/01/20 06:29:52;;;;;;;7.82;4.53;;;;;;;13.70;53.13;98258.31;4909286;29;20063;-92
2023/01/20 06:32:17;;;;;;;7.30;3.65;;;;;;;13.86;53.14;98280.31;4906770;29;20031;-89
2023/01/20 06:34:43;;;;;;;8.13;3.95;;;;;;;13.96;52.85;98268.38;4939460;29;20050;-90
2023/01/20 06:37:08;;;;;;;11.32;4.55;;;;;;;14.04;52.97;98267.56;4932019;29;20039;-91
2023/01/20 06:39:34;;;;;;;11.38;6.00;;;;;;;14.10;53.16;98277.13;4926870;28;20042;-91
2023/01/20 06:41:59;;;;;;;6.78;3.47;;;;;;;14.07;52.80;98250.72;4941440;29;20051;-93
2023/01/20 06:44:25;;;;;;;8.95;3.65;;;;;;;14.09;52.79;98245.78;4912479;29;20038;-94
2023/01/20 06:46:51;;;;;;;10.75;3.88;;;;;;;14.23;53.11;98240.16;4928557;29;20039;-95
2023/01/20 06:49:17;;;;;;;10.30;3.88;;;;;;;14.33;52.86;98253.38;4927053;29;20481;-93
2023/01/20 06:51:42;;;;;;;7.22;4.25;;;;;;;14.35;53.02;98240.31;4928809;29;20047;-95
2023/01/20 06:54:15;;;;;;;9.55;4.10;;;;;;;14.42;52.51;98217.38;4934937;29;20043;-96
2023/01/20 06:56:41;;;;;;;8.57;4.18;;;;;;;14.55;52.24;98227.22;4896574;29;20043;-91
2023/01/20 06:59:11;;;;;;;65.65;58.47;;;;;;;14.57;52.71;98245.88;4908447;29;20439;-90
2023/01/20 07:01:36;;;;;;;13.85;7.10;;;;;;;14.83;52.38;98291.88;4922274;29;20035;-92
2023/01/20 07:04:02;;;;;;;11.55;3.55;;;;;;;14.86;51.90;98285.84;4924593;29;20486;-91
2023/01/20 07:06:37;;;;;;;9.88;3.70;;;;;;;14.72;50.96;98254.28;4909542;29;20047;-92
2023/01/20 07:09:04;;;;;;;6.55;3.85;;;;;;;15.00;50.77;98278.28;4910930;29;20050;-95
2023/01/20 07:11:30;;;;;;;4.13;3.00;;;;;;;14.94;50.57;98266.81;4923280;29;20079;-91
2023/01/20 07:13:56;;;;;;;7.85;4.25;;;;;;;15.05;50.50;98266.47;4908387;29;20111;-93
2023/01/20 07:16:21;;;;;;;8.15;3.53;;;;;;;15.12;50.52;98274.88;4909218;29;20046;-91
2023/01/20 07:18:47;;;;;;;7.90;4.90;;;;;;;15.10;49.84;98269.00;4909553;29;20035;-93
2023/01/20 07:21:13;;;;;;;6.63;3.08;;;;;;;15.17;49.51;98288.28;4925868;29;20046;-91
2023/01/20 07:23:38;;;;;;;6.03;3.67;;;;;;;15.12;49.52;98289.22;4925851;29;20035;-94
2023/01/20 07:26:12;;;;;;;10.57;2.67;;;;;;;15.23;49.24;98295.09;4934073;29;20051;-94
2023/01/20 07:28:37;;;;;;;8.55;3.10;;;;;;;15.27;48.76;98287.91;4911345;29;20073;-94
2023/01/20 07:31:08;;;;;;;9.48;3.00;;;;;;;15.34;48.53;98293.63;4911476;29;20039;-95
2023/01/20 07:34:00;;;;;;;4.65;2.58;;;;;;;15.26;48.49;98294.44;4912009;29;20122;-95
2023/01/20 07:36:25;;;;;;;4.13;2.17;;;;;;;15.19;48.18;98263.53;4919231;29;20473;-94
2023/01/20 07:38:53;;;;;;;4.68;2.72;;;;;;;15.14;48.36;98238.19;4908961;29;20039;-94
2023/01/20 07:41:19;;;;;;;9.23;3.20;;;;;;;15.47;48.17;98272.00;4927414;29;20047;-93
2023/01/20 07:43:57;;;;;;;7.63;2.65;;;;;;;15.41;47.69;98260.53;4910462;29;20123;-94
2023/01/20 07:46:23;;;;;;;5.18;2.78;;;;;;;15.52;47.76;98253.63;4943575;29;20445;-95
2023/01/20 07:48:48;;;;;;;5.50;3.10;;;;;;;15.61;47.23;98258.22;4911247;29;20071;-93
2023/01/20 07:51:18;;;;;;;6.32;3.65;;;;;;;15.76;47.63;98263.06;4927169;29;20039;-95
2023/01/20 07:53:50;;;;;;;7.28;2.97;;;;;;;15.88;47.49;98284.88;4924651;29;20155;-92
2023/01/20 07:56:39;;;;;;;10.23;4.93;;;;;;;15.89;47.31;98256.59;4921681;29;20039;-89
2023/01/20 07:59:11;;;;;;;7.20;3.42;;;;;;;15.93;47.36;98259.44;4917673;28;20039;-92
2023/01/20 08:01:42;;;;;;;13.02;7.68;;;;;;;15.86;47.74;98275.47;4924530;29;20470;-94
2023/01/20 08:04:12;;;;;;;10.95;3.50;;;;;;;15.56;47.99;98275.44;4925979;29;20525;-93
2023/01/20 08:06:38;;;;;;;11.27;4.47;;;;;;;15.73;47.94;98274.59;4913184;29;20039;-96
2023/01/20 08:09:03;;;;;;;6.38;3.58;;;;;;;15.91;47.33;98276.06;4933682;29;20236;-95
2023/01/20 08:11:35;;;;;;;5.65;2.50;;;;;;;15.90;46.74;98300.84;4934983;29;20035;-96
2023/01/20 08:14:01;;;;;;;4.57;2.83;;;;;;;15.94;46.75;98294.41;4935201;29;20058;-96
2023/01/20 08:16:32;;;;;;;7.07;3.58;;;;;;;15.96;46.92;98294.88;4926383;29;20035;-94
2023/01/20 08:18:57;;;;;;;4.88;2.72;;;;;;;16.19;46.20;98319.00;4922455;29;20037;-92
2023/01/20 08:21:27;;;;;;;6.78;2.80;;;;;;;15.88;46.89;98286.78;4926490;29;20039;-94
2023/01/20 08:23:57;;;;;;;5.97;3.40;;;;;;;16.08;46.47;98296.88;4912219;29;20101;-94
2023/01/20 08:26:26;;;;;;;8.10;4.00;;;;;;;16.16;46.86;98293.28;4910846;29;20064;-94
2023/01/20 08:29:06;;;;;;;5.25;3.03;;;;;;;16.40;44.61;98310.03;4929139;29;20042;-92
2023/01/20 08:31:31;;;;;;;6.70;3.08;;;;;;;16.41;45.41;98330.63;4932668;29;20050;-92
2023/01/20 08:33:57;;;;;;;9.65;3.65;;;;;;;16.48;45.35;98315.38;4926651;29;20032;-95
2023/01/20 08:36:30;;;;;;;10.75;3.88;;;;;;;16.63;45.65;98326.78;4922472;29;20549;-91
2023/01/20 08:39:02;;;;;;;22.10;11.02;;;;;;;16.62;45.68;98298.00;4911285;29;20046;-91
2023/01/20 08:41:51;;;;;;;10.43;3.72;;;;;;;16.43;46.97;98301.22;4926231;29;20031;-93
2023/01/20 08:44:20;;;;;;;6.80;2.95;;;;;;;16.44;45.75;98286.50;4885648;29;20504;-94
2023/01/20 08:46:58;;;;;;;4.15;2.65;;;;;;;16.47;47.16;98304.84;4873079;29;20403;-95
2023/01/20 08:49:33;;;;;;;3.80;2.60;;;;;;;16.19;47.46;98251.09;4860495;29;20040;-93
2023/01/20 08:52:12;;;;;;;3.72;2.42;;;;;;;15.98;48.01;98234.00;4862698;29;20040;-95
2023/01/20 08:57:46;;;;;;;12.43;3.35;;;;;;;16.09;48.47;98249.56;5013841;23;20138;-95
2023/01/20 09:00:13;;;;;;;11.02;3.30;;;;;;;16.15;48.17;98244.75;4923628;29;20019;-96
2023/01/20 09:03:12;;;;;;;7.13;3.15;;;;;;;16.38;48.22;98271.53;4939299;28;20034;-96
2023/01/20 09:05:38;;;;;;;9.60;4.40;;;;;;;16.50;47.88;98241.69;4953952;28;20046;-95
2023/01/20 09:11:33;;;;;;;7.28;3.15;;;;;;;16.75;46.45;98231.69;4960441;28;20070;-95
2023/01/20 09:14:19;;;;;;;6.88;3.25;;;;;;;16.88;45.29;98216.19;4954132;28;20050;-96
2023/01/20 09:16:45;;;;;;;19.52;11.18;;;;;;;16.74;45.41;98190.09;4969718;28;20042;-96
2023/01/20 09:19:11;;;;;;;3.65;2.38;;;;;;;16.57;46.05;98229.13;4926030;28;20035;-93
2023/01/20 09:21:50;;;;;;;14.45;5.65;;;;;;;16.79;45.93;98219.00;4946211;28;20042;-96
2023/01/20 09:24:36;;;;;;;7.55;2.53;;;;;;;16.57;45.68;98225.63;4969955;28;20026;-96
2023/01/20 09:27:17;;;;;;;6.50;2.95;;;;;;;16.87;47.97;98233.63;4960719;28;20046;-96
2023/01/20 09:29:52;;;;;;;5.97;3.00;;;;;;;16.92;45.16;98228.78;4941144;28;20446;-93
2023/01/20 09:32:22;;;;;;;10.65;5.38;;;;;;;16.60;46.20;98211.38;4943569;29;20287;-96
2023/01/20 09:34:58;;;;;;;;;;;;;;;;;;;;;
2023/01/20 09:43:58;;;;;;;6.50;2.70;;;;;;;16.77;46.08;98224.75;4942931;29;20050;-94
2023/01/20 09:47:18;;;;;;;11.27;3.55;;;;;;;16.66;46.67;98198.34;4921745;29;20032;-95
2023/01/20 09:53:04;;;;;;;7.53;3.95;;;;;;;16.18;49.88;98195.16;4950026;29;20496;-95
2023/01/20 09:55:29;;;;;;;7.13;3.40;;;;;;;16.05;51.01;98198.97;4935671;28;20043;-94
2023/01/20 09:58:13;;;;;;;3.00;2.17;;;;;;;15.75;51.57;98185.50;4960066;28;20046;-94
2023/01/20 10:00:40;;;;;;;4.70;2.55;;;;;;;15.88;50.13;98189.84;4953982;28;20134;-94
2023/01/20 10:03:37;;;;;;;7.10;2.90;;;;;;;15.76;50.45;98166.16;4928302;28;20034;-92
2023/01/20 10:06:25;;;;;;;4.10;2.42;;;;;;;15.76;51.20;98182.44;4947731;28;20129;-94
2023/01/20 10:09:38;;;;;;;6.15;2.95;;;;;;;15.59;51.95;98215.13;4940683;28;20031;-96
2023/01/20 10:12:09;;;;;;;5.78;2.38;;;;;;;15.36;53.17;98203.78;4972597;28;20047;-93
2023/01/20 10:15:03;;;;;;;5.57;2.58;;;;;;;15.46;52.68;98210.72;4963804;28;20283;-94
2023/01/20 10:17:50;;;;;;;7.57;2.17;;;;;;;15.18;53.90;98234.84;4963691;28;20066;-96
2023/01/20 10:20:51;;;;;;;82.22;62.17;;;;;;;15.23;54.16;98245.47;4954484;29;20035;-95
2023/01/20 10:23:44;;;;;;;4.53;2.58;;;;;;;15.36;54.22;98244.47;4960376;28;20042;-93
2023/01/20 10:26:21;;;;;;;4.78;2.40;;;;;;;15.24;55.65;98239.75;4968845;28;20043;-96
2023/01/20 10:28:54;;;;;;;2.75;1.95;;;;;;;15.23;56.79;98235.44;4935575;28;20043;-91
2023/01/20 10:31:23;;;;;;;5.20;2.88;;;;;;;15.28;55.05;98243.38;4938271;28;20039;-92
2023/01/20 10:33:52;;;;;;;3.40;2.20;;;;;;;15.12;55.64;98242.34;4934154;29;20121;-92
2023/01/20 10:36:24;;;;;;;4.88;2.97;;;;;;;15.27;55.17;98257.25;4931186;29;20042;-91
2023/01/20 10:39:14;;;;;;;5.15;2.65;;;;;;;14.91;55.89;98240.34;4931648;29;20047;-95
2023/01/20 10:41:53;;;;;;;6.20;3.22;;;;;;;14.85;57.68;98233.53;4929600;29;20537;-96
2023/01/20 10:44:19;;;;;;;7.70;2.90;;;;;;;14.73;60.18;98225.28;4918282;29;20027;-95
2023/01/20 10:47:09;;;;;;;6.03;3.72;;;;;;;14.60;61.36;98247.97;4930736;29;20098;-93
2023/01/20 10:49:51;;;;;;;4.60;2.63;;;;;;;14.43;62.02;98238.72;4944811;29;20516;-94
2023/01/20 10:52:39;;;;;;;4.70;2.92;;;;;;;14.46;61.70;98256.22;4945168;29;20491;-94
2023/01/20 10:55:29;;;;;;;5.50;2.22;;;;;;;14.37;59.86;98269.00;4944862;29;20133;-95
2023/01/20 10:58:21;;;;;;;3.03;1.80;;;;;;;14.41;59.03;98253.69;4933063;29;20057;-96
2023/01/20 11:00:48;;;;;;;3.15;2.25;;;;;;;14.09;61.08;98221.41;4929824;29;20044;-96
2023/01/20 11:03:47;;;;;;;2.80;1.33;;;;;;;13.56;61.04;98181.16;4915253;29;20110;-96
2023/01/20 11:06:25;;;;;;;4.75;2.47;;;;;;;13.82;59.61;98178.44;4918070;29;20031;-96
2023/01/20 11:09:02;;;;;;;1.75;1.20;;;;;;;13.62;59.92;98118.47;4905487;29;20040;-96
2023/01/20 11:11:41;;;;;;;3.28;2.20;;;;;;;13.51;59.99;98090.94;4927945;29;20032;-96
2023/01/20 11:14:08;;;;;;;1.90;1.40;;;;;;;13.44;60.79;98071.69;4916604;29;20043;-96
2023/01/20 11:33:39;;;;;;;4.47;2.10;;;;;;;13.61;62.01;98089.81;4968685;28;20094;-96
2023/01/20 11:36:26;;;;;;;3.72;1.70;;;;;;;13.60;60.90;98068.50;4938559;29;20530;-93
2023/01/20 11:38:53;;;;;;;5.50;1.83;;;;;;;13.47;62.98;98068.38;4935657;29;20040;-94
2023/01/20 11:41:31;;;;;;;2.28;1.33;;;;;;;13.74;59.85;98091.56;4956951;28;20039;-95
2023/01/20 11:44:02;;;;;;;2.85;1.50;;;;;;;13.86;60.36;98103.63;4949692;29;20057;-95
2023/01/20 11:46:32;;;;;;;4.00;1.50;;;;;;;14.18;59.78;98117.75;4908206;29;20035;-95
2023/01/20 11:49:23;;;;;;;3.15;2.13;;;;;;;14.11;60.63;98115.50;4920077;29;20462;-96
2023/01/20 11:51:52;;;;;;;3.28;1.40;;;;;;;14.38;60.07;98140.59;4931906;29;20043;-93
2023/01/20 11:54:23;;;;;;;2.15;1.40;;;;;;;14.36;61.10;98132.81;4929143;29;20502;-96
2023/01/20 11:56:59;;;;;;;5.13;3.38;;;;;;;14.30;58.50;98129.47;4930908;29;20059;-95
2023/01/20 12:00:11;;;;;;;9.93;5.00;;;;;;;14.31;59.66;98103.19;4932844;29;20035;-96
2023/01/20 12:02:37;;;;;;;;;;;;;;;14.45;56.95;98132.78;4947051;29;20122;-93
2023/01/20 12:05:21;;;;;;;1.60;1.02;;;;;;;14.16;57.73;98120.75;4941147;29;19945;-91
2023/01/20 12:07:53;;;;;;;2.25;0.90;;;;;;;13.92;56.37;98095.03;4901436;29;20068;-95
2023/01/20 12:10:51;;;;;;;2.58;1.30;;;;;;;14.25;57.63;98072.00;4915219;29;20047;-95
2023/01/20 12:16:30;;;;;;;1.80;1.30;;;;;;;14.05;55.45;98055.34;4941097;29;20098;-94
2023/01/20 12:18:58;;;;;;;1.52;1.10;;;;;;;13.98;55.40;98032.59;4921498;29;20456;-94
2023/01/20 12:21:29;;;;;;;3.88;2.50;;;;;;;14.19;54.75;98040.81;4922666;29;20031;-95
2023/01/20 12:24:37;;;;;;;;;;;;;;;;;;;;;
2023/01/20 12:27:03;;;;;;;2.28;1.30;;;;;;;14.02;53.93;98041.66;4921941;29;20123;-94
2023/01/20 12:29:35;;;;;;;3.15;1.30;;;;;;;13.97;54.63;98012.88;4885338;29;20036;-93
2023/01/20 12:32:01;;;;;;;2.97;1.45;;;;;;;13.97;53.59;98007.47;4881760;29;20040;-94
2023/01/20 12:34:30;;;;;;;4.43;2.50;;;;;;;14.12;53.70;98009.63;4887582;29;20032;-93
2023/01/20 12:37:23;;;;;;;5.30;2.92;;;;;;;14.34;54.36;98030.22;4885054;29;20036;-94
2023/01/20 12:39:52;;;;;;;2.90;1.80;;;;;;;14.43;53.93;98075.44;4927643;29;20053;-91